Time;durP1;ratioP1;P1;durP2;ratioP2;P2;SDS_P1;SDS_P2;PMS_P1;PMS_P2;Temp;Humidity;BMP_temperature;BMP_pressure;BME280_temperature;BME280_humidity;BME280_pressure;Samples;Min_cycle;Max_cycle;Signal;HPM_P1;HPM_P2
2022/12/19 00:05:28;;;;;;;1.23;0.52;;;-2.00;99.90;;;;;;20161262;23;20063;-52
2022/12/19 00:15:29;;;;;;;1.10;0.50;;;-1.90;99.90;;;;;;20035669;24;20059;-44
2022/12/19 00:25:31;;;;;;;1.05;0.30;;;-1.80;99.90;;;;;;20067446;24;20059;-53
2022/12/19 00:35:36;;;;;;;0.50;0.30;;;-1.70;99.90;;;;;;20073897;24;20414;31
2022/12/19 00:45:38;;;;;;;0.85;0.40;;;-1.70;99.90;;;;;;20106628;24;20428;-41
2022/12/19 00:55:40;;;;;;;0.70;0.50;;;-1.60;99.90;;;;;;20037841;24;20124;-51
2022/12/19 01:05:41;;;;;;;0.75;0.40;;;-1.60;99.90;;;;;;20048725;23;20063;-44
2022/12/19 01:15:44;;;;;;;1.10;0.60;;;-1.60;99.90;;;;;;20072054;24;21208;-51
2022/12/19 01:25:51;;;;;;;1.63;0.37;;;-1.50;99.90;;;;;;20073047;24;20572;-50
2022/12/19 01:35:52;;;;;;;0.57;0.30;;;-1.60;99.90;;;;;;20052682;24;20054;-42
2022/12/19 01:45:57;;;;;;;0.90;0.50;;;-1.60;99.90;;;;;;20038258;24;20062;-56
2022/12/19 01:56:00;;;;;;;0.77;0.40;;;-1.50;99.90;;;;;;20061482;24;20067;-45
2022/12/19 02:06:04;;;;;;;0.88;0.50;;;-1.60;99.90;;;;;;20063413;24;20059;-53
2022/12/19 02:16:12;;;;;;;0.80;0.50;;;-1.50;99.90;;;;;;20039766;24;20059;-45
2022/12/19 02:26:55;;;;;;;0.73;0.40;;;-1.40;99.90;;;;;;20579079;24;20090;-61
2022/12/19 02:37:06;;;;;;;1.33;0.30;;;-1.60;99.90;;;;;;20176242;23;20045;-53
2022/12/19 02:47:21;;;;;;;0.80;0.40;;;-1.80;99.90;;;;;;19984926;24;20414;-66
2022/12/19 02:57:23;;;;;;;0.75;0.30;;;-1.90;99.90;;;;;;20034797;24;20086;-55
2022/12/19 03:07:48;;;;;;;0.50;0.20;;;-2.00;99.90;;;;;;20596430;24;20444;-42
2022/12/19 03:17:59;;;;;;;0.55;0.30;;;-1.90;99.90;;;;;;20024640;24;20521;-51
2022/12/19 03:38:23;;;;;;;0.60;0.30;;;-1.80;99.90;;;;;;20021982;24;20051;-43
2022/12/19 03:48:54;;;;;;;1.08;0.30;;;-1.90;99.90;;;;;;20078124;24;20063;-53
2022/12/19 03:58:59;;;;;;;;;;;-1.90;99.90;;;;;;20048115;24;20059;-42
2022/12/19 04:09:01;;;;;;;1.13;0.40;;;-1.90;99.90;;;;;;20045420;24;20394;-53
2022/12/19 04:19:29;;;;;;;0.80;0.30;;;-2.00;99.90;;;;;;20075713;24;20127;-48
2022/12/19 04:29:33;;;;;;;0.57;0.20;;;-2.10;99.90;;;;;;20055024;24;20067;-53
2022/12/19 04:39:34;;;;;;;1.38;0.22;;;-2.10;99.90;;;;;;20145370;24;20115;-52
2022/12/19 04:49:36;;;;;;;1.15;0.30;;;-2.00;99.90;;;;;;20021498;24;20491;-54
2022/12/19 04:59:38;;;;;;;0.63;0.20;;;-1.70;99.90;;;;;;20072578;24;20421;-43
2022/12/19 05:09:40;;;;;;;0.80;0.30;;;-1.50;99.90;;;;;;20072496;24;20066;-50
2022/12/19 05:19:42;;;;;;;0.73;0.40;;;-1.50;99.90;;;;;;20071324;24;20116;-46
2022/12/19 05:30:00;;;;;;;1.25;0.40;;;-1.40;99.90;;;;;;19964799;24;20088;-55
2022/12/19 18:37:12;;;;;;;1.00;0.57;;;-0.10;99.90;;;;;;20552751;23;1287047;-54
2022/12/19 18:47:22;;;;;;;2.28;0.70;;;-0.10;99.90;;;;;;20367838;23;20471;-43
2022/12/19 18:57:24;;;;;;;1.20;0.60;;;-0.20;99.90;;;;;;20382831;23;20480;-54
2022/12/19 19:07:26;;;;;;;1.02;0.57;;;-0.20;99.90;;;;;;20393957;23;20065;-47
2022/12/19 19:17:29;;;;;;;1.48;0.75;;;-0.30;99.90;;;;;;20382645;23;20069;-41
2022/12/19 19:28:03;;;;;;;1.33;0.60;;;-0.30;99.90;;;;;;20363698;23;20061;-43
2022/12/19 19:38:14;;;;;;;1.40;0.68;;;-0.30;99.90;;;;;;20310986;23;20056;31
2022/12/19 19:48:16;;;;;;;1.63;0.77;;;-0.40;99.90;;;;;;20393432;23;20063;-46
2022/12/19 19:58:18;;;;;;;2.00;0.85;;;-0.50;99.90;;;;;;20439351;23;20595;-54
2022/12/19 20:08:20;;;;;;;1.10;0.60;;;-0.50;99.90;;;;;;20421713;23;20568;-46
2022/12/19 20:18:22;;;;;;;1.65;0.60;;;-0.60;99.90;;;;;;20431651;23;20108;-54
2022/12/19 20:28:24;;;;;;;1.17;0.50;;;-0.40;99.90;;;;;;20454661;23;20056;-41
2022/12/19 20:38:27;;;;;;;1.27;0.45;;;-0.40;99.90;;;;;;20413599;23;20064;-44
2022/12/19 20:48:29;;;;;;;2.08;0.70;;;-0.60;99.90;;;;;;20451627;23;20057;-53
2022/12/19 20:58:33;;;;;;;0.88;0.50;;;-0.70;99.90;;;;;;20455885;23;20060;-43
2022/12/19 21:08:35;;;;;;;1.00;0.57;;;-0.70;99.90;;;;;;20407636;23;20057;-54
2022/12/19 21:18:39;;;;;;;2.55;0.63;;;-0.60;99.90;;;;;;20419867;23;20475;-42
2022/12/19 21:28:44;;;;;;;1.55;0.80;;;-0.50;99.90;;;;;;20804088;23;20064;-63
2022/12/19 21:38:48;;;;;;;1.23;0.50;;;-0.60;99.90;;;;;;20446405;23;20048;-41
2022/12/19 21:48:55;;;;;;;1.10;0.60;;;-0.70;99.90;;;;;;20434123;23;20056;-56
2022/12/19 21:59:00;;;;;;;1.67;0.68;;;-0.50;99.90;;;;;;20452680;23;20524;-44
2022/12/19 22:09:04;;;;;;;1.00;0.65;;;-0.60;99.90;;;;;;20440718;23;20027;-55
2022/12/19 22:19:38;;;;;;;0.98;0.50;;;-0.50;99.90;;;;;;20395036;23;20104;-55
2022/12/19 22:29:46;;;;;;;1.00;0.40;;;-0.60;99.90;;;;;;20408372;23;20124;31
2022/12/19 22:39:48;;;;;;;0.63;0.40;;;-0.50;99.90;;;;;;20371359;23;20116;-51
2022/12/19 22:49:51;;;;;;;1.60;0.40;;;-0.40;99.90;;;;;;20435335;23;20052;-42
2022/12/19 22:59:52;;;;;;;0.90;0.40;;;-0.50;99.90;;;;;;20423747;23;20128;-52
2022/12/19 23:09:54;;;;;;;1.45;0.55;;;-0.30;99.90;;;;;;20451098;23;20053;-46
2022/12/19 23:19:56;;;;;;;0.60;0.40;;;-0.40;99.90;;;;;;20445871;23;20056;-53
2022/12/19 23:29:58;;;;;;;1.02;0.52;;;-0.40;99.90;;;;;;20320089;23;20125;-54
2022/12/19 23:39:59;;;;;;;1.25;0.60;;;-0.30;99.90;;;;;;20378937;23;20060;-42
2022/12/19 23:50:01;;;;;;;1.00;0.50;;;-0.30;99.90;;;;;;20453034;23;20199;-54
